Time;durP1;ratioP1;P1;durP2;ratioP2;P2;SDS_P1;SDS_P2;PMS_P1;PMS_P2;Temp;Humidity;BMP_temperature;BMP_pressure;BME280_temperature;BME280_humidity;BME280_pressure;Samples;Min_cycle;Max_cycle;Signal;HPM_P1;HPM_P2
2022/11/05 00:11:03;;;;;;;28.48;14.35;;;;;;;12.80;55.65;97133.66;10377394;28;20572;-55
2022/11/05 00:26:37;;;;;;;21.95;12.35;;;;;;;12.81;55.81;97155.34;10375617;28;20071;-55
2022/11/05 00:31:36;;;;;;;22.30;12.40;;;;;;;12.80;55.54;97146.66;10376288;28;20504;-56
2022/11/05 00:36:35;;;;;;;20.00;12.65;;;;;;;12.77;55.67;97145.88;10376043;28;20072;-56
2022/11/05 00:41:34;;;;;;;22.85;13.63;;;;;;;12.70;55.97;97148.59;10375737;28;20031;-57
2022/11/05 00:46:33;;;;;;;21.65;13.07;;;;;;;12.65;55.99;97142.63;10375820;28;20477;-56
2022/11/05 00:51:32;;;;;;;21.70;13.73;;;;;;;12.61;56.01;97137.50;10375557;28;20041;-56
2022/11/05 00:56:31;;;;;;;24.80;14.05;;;;;;;12.59;56.42;97129.72;10375322;28;20096;-56
2022/11/05 01:01:29;;;;;;;21.42;13.52;;;;;;;12.52;56.68;97115.97;10374945;28;20029;-56
2022/11/05 01:06:28;;;;;;;25.17;15.00;;;;;;;12.39;57.68;97108.41;10374679;28;20486;-56
2022/11/05 01:11:34;;;;;;;26.60;15.05;;;;;;;12.24;57.67;97106.94;10374869;28;20033;-55
2022/11/05 01:16:33;;;;;;;24.02;16.10;;;;;;;12.11;58.38;97093.28;10374456;28;20484;-56
2022/11/05 01:21:32;;;;;;;22.35;15.00;;;;;;;11.93;59.45;97091.00;10374400;28;20056;-56
2022/11/05 01:26:31;;;;;;;;;;;;;;;11.85;59.92;97076.41;10374726;28;20084;-56
2022/11/05 01:31:30;;;;;;;23.35;15.27;;;;;;;11.82;59.67;97080.78;10374107;28;19912;-56
2022/11/05 01:36:29;;;;;;;25.83;15.77;;;;;;;11.74;60.34;97083.50;10373564;28;20385;-56
2022/11/05 01:41:28;;;;;;;28.55;17.05;;;;;;;11.65;60.25;97071.53;10373690;28;20108;-56
2022/11/05 01:46:38;;;;;;;27.50;18.17;;;;;;;11.50;61.08;97060.50;10373739;28;20032;-56
2022/11/05 01:51:38;;;;;;;28.55;18.30;;;;;;;11.42;61.35;97056.28;10373302;28;20080;-56
2022/11/05 01:56:42;;;;;;;27.58;16.08;;;;;;;11.35;61.76;97046.88;10373176;28;20068;-55
2022/11/05 02:01:41;;;;;;;27.02;17.63;;;;;;;11.31;61.97;97047.81;10373079;28;20088;-56
2022/11/05 02:06:44;;;;;;;26.15;18.40;;;;;;;11.25;62.17;97042.72;10372942;28;20122;-55
2022/11/05 02:11:43;;;;;;;25.42;17.42;;;;;;;11.17;62.99;97031.56;10372469;28;20080;-56
2022/11/05 02:16:51;;;;;;;31.13;18.48;;;;;;;11.08;62.60;97014.41;10373148;28;20031;-55
2022/11/05 02:22:09;;;;;;;25.15;17.70;;;;;;;10.95;63.84;97018.06;10372727;28;20060;-56
2022/11/05 02:27:40;;;;;;;28.17;18.63;;;;;;;10.74;64.94;97029.56;10372341;28;20060;-56
2022/11/05 02:33:01;;;;;;;26.15;16.85;;;;;;;10.73;64.55;97038.22;10359562;28;20088;-55
2022/11/05 02:38:22;;;;;;;25.52;17.08;;;;;;;10.66;64.57;97041.75;10372457;28;20072;-55
2022/11/05 02:43:21;;;;;;;27.48;17.13;;;;;;;10.56;65.65;97041.88;10372638;28;20061;-56
2022/11/05 02:48:34;;;;;;;27.92;18.10;;;;;;;10.49;65.73;97037.63;10372648;28;20110;-56
2022/11/05 02:53:42;;;;;;;28.45;17.95;;;;;;;10.32;66.09;97047.38;10372411;28;20076;-55
2022/11/05 02:58:41;;;;;;;28.90;19.70;;;;;;;10.20;66.88;97048.38;10371837;28;20465;-56
2022/11/05 03:03:42;;;;;;;28.05;19.17;;;;;;;10.17;66.04;97038.03;10371699;28;20796;-56
2022/11/05 03:09:05;;;;;;;33.97;19.15;;;;;;;10.16;67.07;97051.84;10371423;28;20068;-56
2022/11/05 03:14:25;;;;;;;32.33;20.25;;;;;;;10.15;67.09;97048.41;10372018;28;20064;-56
2022/11/05 03:19:33;;;;;;;;;;;;;;;10.08;67.50;97048.50;10370117;28;20581;-55
2022/11/05 03:24:34;;;;;;;28.55;18.98;;;;;;;10.07;67.02;97042.44;10371604;28;19960;-56
2022/11/05 03:29:47;;;;;;;38.63;22.02;;;;;;;10.04;67.34;97042.47;10357123;28;20071;-57
2022/11/05 03:34:51;;;;;;;32.78;19.88;;;;;;;10.01;67.54;97032.16;10338301;28;20088;-56
2022/11/05 03:39:54;;;;;;;27.80;19.67;;;;;;;10.07;67.61;97039.00;10337930;28;20499;-57
2022/11/05 03:44:57;;;;;;;33.40;20.80;;;;;;;10.05;68.45;97039.03;10337380;28;20057;-56
2022/11/05 03:49:59;;;;;;;34.13;21.02;;;;;;;9.97;68.27;97051.19;10336859;28;20085;-56
2022/11/05 03:54:58;;;;;;;38.97;21.88;;;;;;;9.98;68.25;97058.13;10336979;28;20482;-56
2022/11/05 03:59:57;;;;;;;34.33;20.88;;;;;;;9.91;68.99;97056.41;10336761;28;20069;-56
2022/11/05 04:04:56;;;;;;;33.17;21.20;;;;;;;9.76;70.11;97057.44;10336982;28;20060;-56
2022/11/05 04:15:14;;;;;;;34.92;21.85;;;;;;;9.73;69.81;97065.25;10337033;28;20076;-56
2022/11/05 04:25:31;;;;;;;33.15;21.88;;;;;;;9.71;70.22;97064.41;10336358;28;20073;-57
2022/11/05 04:30:30;;;;;;;32.20;21.05;;;;;;;9.71;70.30;97075.59;10363619;28;20041;-57
2022/11/05 04:35:37;;;;;;;33.83;21.75;;;;;;;9.75;69.86;97068.69;10376479;28;20120;-57
2022/11/05 04:40:37;;;;;;;36.97;21.88;;;;;;;9.74;69.83;97072.13;10374821;28;20060;-57
2022/11/05 04:45:36;;;;;;;31.60;21.65;;;;;;;9.74;70.23;97085.09;10375798;28;20072;-57
2022/11/05 04:50:35;;;;;;;40.88;21.75;;;;;;;9.70;70.13;97070.44;10375816;28;20124;-57
2022/11/05 04:55:34;;;;;;;33.70;22.35;;;;;;;9.68;70.35;97079.97;10375655;28;20080;-57
2022/11/05 05:00:33;;;;;;;42.30;25.10;;;;;;;9.63;70.60;97085.19;10375102;28;20032;-57
2022/11/05 05:05:32;;;;;;;41.92;26.60;;;;;;;9.50;71.08;97088.75;10373464;28;20576;-57
2022/11/05 05:10:31;;;;;;;41.63;24.92;;;;;;;9.49;71.43;97105.16;10374995;28;20424;-57
2022/11/05 05:15:30;;;;;;;36.75;23.38;;;;;;;9.54;71.35;97113.75;10374800;28;20095;-57
2022/11/05 05:25:46;;;;;;;44.70;24.30;;;;;;;9.57;71.77;97118.91;10374537;28;20500;-57
2022/11/05 05:30:45;;;;;;;41.30;23.88;;;;;;;9.52;72.63;97099.94;10344030;28;20477;-57
2022/11/05 05:35:44;;;;;;;37.22;23.58;;;;;;;9.69;72.16;97125.72;10333285;28;20140;-57
2022/11/05 05:40:43;;;;;;;45.08;28.05;;;;;;;9.73;72.35;97130.00;10333193;28;20033;-57
2022/11/05 05:45:42;;;;;;;39.60;24.83;;;;;;;9.72;71.93;97118.81;10332420;28;20088;-57
2022/11/05 05:50:41;;;;;;;48.88;27.17;;;;;;;9.85;71.52;97132.50;10332729;28;20076;-57
2022/11/05 05:55:40;;;;;;;49.15;30.75;;;;;;;10.06;71.78;97144.41;10333223;28;20115;-57
2022/11/05 06:00:39;;;;;;;55.45;33.90;;;;;;;10.23;71.41;97151.19;10332351;28;20120;-57
2022/11/05 06:05:38;;;;;;;54.63;33.30;;;;;;;10.36;70.13;97142.44;10332213;28;20040;-56
2022/11/05 06:10:37;;;;;;;62.40;42.03;;;;;;;10.46;69.08;97162.19;10332189;28;20504;-57
2022/11/05 06:15:36;;;;;;;52.40;33.65;;;;;;;10.53;68.95;97140.50;10332829;28;20075;-57
2022/11/05 06:20:35;;;;;;;51.45;30.50;;;;;;;10.61;69.09;97148.19;10332239;28;20033;-55
2022/11/05 06:25:34;;;;;;;44.85;29.25;;;;;;;10.81;67.73;97148.84;10331873;28;20330;-56
2022/11/05 06:30:33;;;;;;;49.60;27.88;;;;;;;10.96;66.88;97150.44;10359453;28;20065;-55
2022/11/05 06:35:32;;;;;;;49.35;25.50;;;;;;;11.10;66.22;97145.03;10372421;28;20033;-56
2022/11/05 06:40:31;;;;;;;;;;;;;;;11.28;66.06;97149.16;10372724;28;20103;-56
2022/11/05 06:45:30;;;;;;;34.30;21.85;;;;;;;11.36;65.35;97151.63;10372139;28;19971;-56
2022/11/05 06:50:29;;;;;;;34.20;22.33;;;;;;;11.64;64.83;97147.78;10371815;28;20132;-56
2022/11/05 06:55:30;;;;;;;38.03;23.35;;;;;;;11.91;63.73;97142.16;10371914;28;20044;-56
2022/11/05 07:00:29;;;;;;;32.47;21.52;;;;;;;12.08;62.54;97137.53;10371879;28;20080;-56
2022/11/05 07:05:30;;;;;;;37.65;20.23;;;;;;;12.19;61.49;97142.56;10379678;28;20426;-57
2022/11/05 07:10:29;;;;;;;27.00;18.92;;;;;;;12.39;61.01;97135.31;10378395;28;20064;-56
2022/11/05 07:15:28;;;;;;;26.10;16.45;;;;;;;12.34;60.34;97113.69;10379533;28;20077;-57
2022/11/05 07:20:27;;;;;;;31.02;16.98;;;;;;;12.53;61.20;97116.81;10379274;28;20044;-57
2022/11/05 07:25:26;;;;;;;29.02;18.25;;;;;;;12.81;61.38;97111.91;10378972;28;20496;-56
2022/11/05 07:30:25;;;;;;;25.95;17.00;;;;;;;13.11;60.67;97109.56;10378921;28;20075;-56
2022/11/05 07:35:24;;;;;;;28.98;18.42;;;;;;;13.28;60.22;97111.81;10378756;28;20021;-57
2022/11/05 07:40:25;;;;;;;;;;;;;;;13.48;59.57;97101.78;10379222;28;20073;-57
2022/11/05 07:45:25;;;;;;;26.70;17.13;;;;;;;13.74;59.03;97108.19;10378223;28;19966;-57
2022/11/05 07:50:27;;;;;;;31.13;18.55;;;;;;;14.18;58.80;97106.22;10377773;28;20103;-57
2022/11/05 07:55:25;;;;;;;29.33;16.45;;;;;;;14.61;57.38;97099.84;10378026;28;20515;-56
2022/11/05 08:00:25;;;;;;;31.75;17.83;;;;;;;14.91;56.26;97092.94;10377325;28;20801;-56
2022/11/05 08:05:24;;;;;;;31.48;17.90;;;;;;;15.16;55.52;97080.00;10376107;28;20073;-56
2022/11/05 08:10:24;;;;;;;;;;;;;;;15.34;54.01;97091.69;10376494;28;20086;-56
2022/11/05 08:15:23;;;;;;;27.98;18.15;;;;;;;15.55;52.79;97084.94;10376601;28;19999;-56
2022/11/05 08:20:22;;;;;;;25.23;16.25;;;;;;;15.84;51.51;97080.53;10376525;28;20068;-57
2022/11/05 08:25:21;;;;;;;;;;;;;;;16.17;49.72;97078.56;10376261;28;20060;-57
2022/11/05 08:30:20;;;;;;;32.83;18.10;;;;;;;16.55;48.59;97070.25;10348966;28;20307;-56
2022/11/05 08:35:19;;;;;;;;;;;;;;;16.96;47.58;97073.16;10335082;28;20029;-57
2022/11/05 08:40:18;;;;;;;24.17;14.02;;;;;;;17.29;46.43;97061.38;10335285;28;20359;-56
2022/11/05 08:45:16;;;;;;;;;;;;;;;17.53;45.37;97054.31;10334570;28;20551;-56
2022/11/05 08:50:16;;;;;;;19.30;11.73;;;;;;;17.79;44.60;97056.84;10334037;28;19921;-56
2022/11/05 08:55:17;;;;;;;21.38;11.43;;;;;;;17.88;44.51;97056.47;10334050;28;20065;-56
2022/11/05 09:00:16;;;;;;;17.40;10.32;;;;;;;17.97;44.08;97040.31;10334119;28;20077;-56
2022/11/05 09:05:15;;;;;;;19.92;10.85;;;;;;;18.27;43.46;97045.16;10333905;28;20567;-56
2022/11/05 09:10:15;;;;;;;16.13;10.10;;;;;;;18.56;43.11;97043.91;10333821;28;20435;-55
2022/11/05 09:15:14;;;;;;;16.20;8.90;;;;;;;18.84;39.18;97035.66;10333648;28;20073;-56
2022/11/05 09:20:13;;;;;;;14.57;6.55;;;;;;;19.20;38.11;97021.72;10333082;28;20491;-56
2022/11/05 09:25:14;;;;;;;15.88;7.70;;;;;;;19.53;36.00;97021.03;10334367;28;20061;-56
2022/11/05 09:30:13;;;;;;;18.65;8.13;;;;;;;19.76;36.39;97020.78;10361037;28;20072;-56
2022/11/05 09:35:12;;;;;;;13.00;6.10;;;;;;;20.07;35.02;97025.38;10376020;28;20072;-56
2022/11/05 09:40:16;;;;;;;16.33;7.68;;;;;;;20.40;33.78;97015.81;10375301;28;20080;-56
2022/11/05 09:45:19;;;;;;;18.88;7.32;;;;;;;20.52;32.56;97014.31;10375120;28;20080;-56
2022/11/05 09:50:24;;;;;;;17.98;7.20;;;;;;;20.68;32.44;97004.66;10375643;28;20080;-56
2022/11/05 09:55:34;;;;;;;12.93;7.13;;;;;;;20.79;32.25;97006.72;10374994;28;20064;-56
2022/11/05 10:00:33;;;;;;;17.52;6.85;;;;;;;20.85;32.37;97001.13;10374753;28;20710;-56
2022/11/05 10:05:35;;;;;;;17.40;7.15;;;;;;;21.03;32.37;97002.78;10374272;28;20515;-57
2022/11/05 10:10:43;;;;;;;12.05;6.47;;;;;;;21.33;32.01;96996.72;10374892;28;20061;-55
2022/11/05 10:15:51;;;;;;;9.13;5.90;;;;;;;21.61;30.82;96990.72;10373924;28;20460;-56
2022/11/05 10:20:50;;;;;;;12.17;5.80;;;;;;;21.68;30.20;96996.50;10374836;28;20071;-56
2022/11/05 10:26:02;;;;;;;13.38;6.47;;;;;;;21.73;29.78;97005.00;10375308;28;20981;-56
2022/11/05 10:31:12;;;;;;;12.10;6.10;;;;;;;21.79;29.58;97002.03;10375033;28;20464;-56
2022/11/05 10:36:21;;;;;;;11.60;6.47;;;;;;;21.90;29.61;96981.13;10374092;28;20080;-56
2022/11/05 10:41:46;;;;;;;23.85;6.43;;;;;;;22.11;29.34;96983.47;10380538;28;20079;-56
2022/11/05 10:47:34;;;;;;;15.32;6.28;;;;;;;22.28;28.03;96972.72;10380430;28;20531;-56
2022/11/05 10:52:35;;;;;;;15.55;5.85;;;;;;;22.33;27.91;96983.00;10380571;28;20076;-56
2022/11/05 10:57:37;;;;;;;11.68;6.05;;;;;;;22.46;27.93;96972.53;10379641;28;20496;-56
2022/11/05 11:02:36;;;;;;;11.23;5.75;;;;;;;22.51;28.25;96973.97;10380645;28;20061;-56
2022/11/05 11:07:35;;;;;;;12.32;5.68;;;;;;;22.57;27.92;96964.78;10379913;28;20035;-56
2022/11/05 11:12:42;;;;;;;19.58;6.18;;;;;;;22.54;27.58;96964.97;10379886;28;20441;-56
2022/11/05 11:17:41;;;;;;;14.13;7.00;;;;;;;22.45;27.99;96963.75;10379619;28;20554;-56
2022/11/05 11:22:40;;;;;;;11.77;6.35;;;;;;;22.56;28.50;96957.81;10379527;28;20064;-56
2022/11/05 11:27:39;;;;;;;14.30;7.78;;;;;;;22.63;29.02;96963.56;10378895;28;20104;-56
2022/11/05 11:32:38;;;;;;;11.30;7.70;;;;;;;22.69;28.89;96956.06;10378884;28;20038;-56
2022/11/05 11:37:40;;;;;;;12.95;6.68;;;;;;;22.65;29.11;96962.53;10378100;28;20076;-56
2022/11/05 11:42:44;;;;;;;12.02;7.18;;;;;;;22.71;28.74;96954.19;10379247;28;20075;-57
2022/11/05 11:47:46;;;;;;;13.02;6.72;;;;;;;22.70;28.57;96957.78;10377729;28;20554;-55
2022/11/05 11:52:45;;;;;;;13.20;6.45;;;;;;;22.70;28.18;96959.59;10378583;28;20061;-56
2022/11/05 11:57:53;;;;;;;11.25;6.47;;;;;;;22.71;28.22;96962.13;10378450;28;20040;-57
2022/11/05 12:03:07;;;;;;;10.90;5.87;;;;;;;22.70;28.33;96960.44;10377754;28;20083;-56
2022/11/05 12:08:30;;;;;;;9.48;6.13;;;;;;;22.67;28.07;96971.22;10378065;28;20484;-57
2022/11/05 12:13:57;;;;;;;14.60;6.43;;;;;;;22.64;28.19;96962.63;10375949;28;20076;-56
2022/11/05 12:19:34;;;;;;;11.68;6.63;;;;;;;22.45;28.04;96966.41;10376256;28;20073;-56
2022/11/05 12:24:50;;;;;;;10.48;6.72;;;;;;;22.40;28.27;96968.47;10377384;28;20516;-55
2022/11/05 12:29:55;;;;;;;14.88;6.90;;;;;;;22.26;28.39;96971.97;10354920;28;20068;-57
2022/11/05 12:34:54;;;;;;;12.18;7.53;;;;;;;22.14;29.00;96975.34;10335824;28;20076;-56
2022/11/05 12:40:15;;;;;;;12.55;6.88;;;;;;;21.97;29.81;96977.16;10335916;28;20042;-56
2022/11/05 12:45:32;;;;;;;14.70;7.07;;;;;;;21.91;29.90;96974.88;10335350;28;20065;-56
2022/11/05 12:50:42;;;;;;;12.93;7.47;;;;;;;21.80;29.99;96969.38;10335040;28;20115;-56
2022/11/05 12:55:48;;;;;;;13.48;7.28;;;;;;;21.75;30.22;96982.00;10334905;28;20076;-55
2022/11/05 13:00:54;;;;;;;13.00;8.05;;;;;;;21.68;30.36;96973.59;10333478;28;20509;-55
2022/11/05 13:06:08;;;;;;;11.40;7.55;;;;;;;21.50;30.72;96977.28;10334611;28;20100;-55
2022/11/05 13:11:17;;;;;;;11.52;7.13;;;;;;;21.37;30.62;96977.16;10334236;28;20083;-55
2022/11/05 13:16:23;;;;;;;;;;;;;;;21.29;30.93;96984.66;10334145;28;20077;-55
2022/11/05 13:21:27;;;;;;;15.85;7.45;;;;;;;21.24;31.00;96982.28;10334031;28;19952;-54
2022/11/05 13:26:34;;;;;;;12.27;7.25;;;;;;;21.11;31.03;96990.00;10333959;28;20077;-55
2022/11/05 13:31:39;;;;;;;10.10;7.25;;;;;;;21.00;30.84;96997.63;10332732;28;20531;-55
2022/11/05 13:42:36;;;;;;;13.43;7.45;;;;;;;20.69;31.48;96988.78;10333718;28;20061;-55
2022/11/05 13:47:57;;;;;;;13.48;7.68;;;;;;;20.64;32.63;97001.34;10332563;28;20064;-56
2022/11/05 13:53:14;;;;;;;13.98;8.43;;;;;;;20.48;33.04;96996.03;10332457;28;20069;-55
2022/11/05 13:58:47;;;;;;;15.52;8.82;;;;;;;20.35;33.55;97009.91;10332212;28;20138;-56
2022/11/05 14:03:52;;;;;;;18.63;9.57;;;;;;;20.22;34.53;97013.19;10332578;28;20065;-56
2022/11/05 14:08:55;;;;;;;13.95;9.23;;;;;;;20.06;34.88;97014.91;10332006;28;20065;-57
2022/11/05 14:13:58;;;;;;;20.15;10.02;;;;;;;19.96;35.41;97021.56;10332025;28;20072;-56
2022/11/05 14:19:18;;;;;;;19.60;10.25;;;;;;;19.84;36.37;97023.06;10331959;28;20065;-56
2022/11/05 14:24:20;;;;;;;28.60;10.68;;;;;;;19.57;37.16;97022.63;10331580;28;20072;-56
2022/11/05 14:29:22;;;;;;;16.85;11.38;;;;;;;19.43;37.72;97029.34;10349451;28;20068;-56
2022/11/05 14:34:40;;;;;;;19.27;11.82;;;;;;;19.28;38.19;97040.63;10372077;28;20083;-56
2022/11/05 14:39:40;;;;;;;24.40;13.05;;;;;;;19.11;38.31;97041.44;10372553;28;20065;-56
2022/11/05 14:44:57;;;;;;;23.88;12.32;;;;;;;18.99;38.64;97042.84;10371991;28;20068;-56
2022/11/05 14:50:20;;;;;;;18.38;12.07;;;;;;;18.82;39.16;97055.91;10372281;28;20096;-56
2022/11/05 14:55:27;;;;;;;21.67;12.15;;;;;;;18.66;39.74;97047.81;10372504;28;20075;-56
2022/11/05 15:00:35;;;;;;;20.58;13.02;;;;;;;18.51;39.78;97049.38;10372455;28;20076;-56
2022/11/05 15:05:37;;;;;;;26.55;13.90;;;;;;;18.32;39.53;97051.09;10372397;28;20095;-56
2022/11/05 15:10:37;;;;;;;25.13;15.40;;;;;;;18.02;40.00;97045.38;10372072;28;20056;-56
2022/11/05 15:15:43;;;;;;;28.58;17.33;;;;;;;17.88;40.51;97066.94;10371761;28;20064;-56
2022/11/05 15:20:46;;;;;;;29.83;21.75;;;;;;;17.59;42.23;97068.09;10371627;28;20072;-56
2022/11/05 15:26:01;;;;;;;32.25;22.77;;;;;;;17.32;43.22;97063.88;10377697;28;20071;-56
2022/11/05 15:31:03;;;;;;;44.38;27.33;;;;;;;17.17;44.31;97067.13;10347003;28;20501;-56
2022/11/05 15:36:29;;;;;;;42.47;27.17;;;;;;;16.83;46.02;97068.38;10338175;28;20491;-57
2022/11/05 15:41:33;;;;;;;47.10;27.60;;;;;;;16.64;46.97;97077.78;10337857;28;20103;-57
2022/11/05 15:46:32;;;;;;;42.70;27.60;;;;;;;16.52;46.91;97082.56;10338101;28;20479;-55
2022/11/05 15:51:31;;;;;;;51.60;29.85;;;;;;;16.50;46.68;97092.22;10337229;28;20085;-57
2022/11/05 15:56:36;;;;;;;37.45;23.38;;;;;;;16.38;47.60;97090.03;10337322;28;20513;-56
2022/11/05 16:01:46;;;;;;;56.28;39.70;;;;;;;16.30;47.16;97084.19;10337361;28;20076;-55
2022/11/05 16:06:48;;;;;;;40.10;25.60;;;;;;;16.22;47.35;97091.47;10337170;28;20061;-55
2022/11/05 16:11:47;;;;;;;39.53;27.27;;;;;;;16.16;47.47;97104.75;10337151;28;20076;-55
2022/11/05 16:16:45;;;;;;;;;;;;;;;16.00;48.01;97102.69;10336797;28;20043;-56
2022/11/05 16:21:53;;;;;;;40.03;24.98;;;;;;;15.89;48.38;97096.94;10336868;28;19915;-56
2022/11/05 16:26:54;;;;;;;39.20;25.55;;;;;;;15.56;49.85;97118.00;10336216;28;20061;-56
2022/11/05 16:31:55;;;;;;;46.50;28.90;;;;;;;15.50;49.69;97105.09;10375505;28;20064;-57
2022/11/05 16:36:56;;;;;;;44.55;27.83;;;;;;;15.37;49.85;97117.72;10376403;28;20068;-56
2022/11/05 16:41:55;;;;;;;42.22;27.27;;;;;;;15.32;50.17;97124.84;10375872;28;20091;-56
2022/11/05 16:46:54;;;;;;;;;;;;;;;15.12;51.15;97117.59;10376540;28;20035;-57
2022/11/05 16:51:53;;;;;;;44.97;26.73;;;;;;;15.02;51.29;97126.59;10375601;28;19974;-57
2022/11/05 16:56:52;;;;;;;41.38;29.45;;;;;;;14.91;52.05;97131.28;10375900;28;20115;-57
2022/11/05 17:01:51;;;;;;;;;;;;;;;14.83;52.24;97137.56;10375996;28;20491;-56
2022/11/05 17:06:50;;;;;;;68.13;43.42;;;;;;;14.66;51.93;97124.06;10375436;28;20473;-57
2022/11/05 17:11:49;;;;;;;79.82;43.50;;;;;;;14.58;52.63;97141.72;10375499;28;20485;-57
2022/11/05 17:16:48;;;;;;;63.00;38.60;;;;;;;14.50;52.90;97143.66;10373597;28;20037;-57
2022/11/05 17:21:47;;;;;;;57.13;32.15;;;;;;;14.39;52.74;97143.97;10375176;28;20036;-56
2022/11/05 17:26:46;;;;;;;54.78;35.95;;;;;;;14.27;53.44;97136.47;10373437;28;20060;-56
2022/11/05 17:31:45;;;;;;;59.58;37.63;;;;;;;14.16;53.76;97139.31;10374166;28;20073;-57
2022/11/05 17:36:44;;;;;;;56.92;37.33;;;;;;;14.04;53.86;97150.06;10374640;28;20048;-56
2022/11/05 17:41:43;;;;;;;59.70;39.15;;;;;;;13.89;54.85;97154.78;10374742;28;20399;-56
2022/11/05 17:46:43;;;;;;;60.88;38.47;;;;;;;13.81;54.98;97146.25;10373857;28;20064;-56
2022/11/05 17:51:42;;;;;;;54.65;36.85;;;;;;;13.70;55.80;97146.53;10373674;28;20084;-56
2022/11/05 17:56:42;;;;;;;54.67;34.83;;;;;;;13.57;56.19;97150.31;10373796;28;20029;-55
2022/11/05 18:01:42;;;;;;;58.55;36.13;;;;;;;13.47;57.06;97144.41;10373404;28;20064;-56
2022/11/05 18:06:41;;;;;;;61.88;38.03;;;;;;;13.38;57.73;97139.41;10372985;28;20068;-55
2022/11/05 18:11:41;;;;;;;69.53;43.22;;;;;;;13.23;58.42;97135.34;10373193;28;20076;-55
2022/11/05 18:16:40;;;;;;;80.15;47.10;;;;;;;13.14;58.53;97139.03;10373389;28;20064;-55
2022/11/05 18:21:39;;;;;;;77.75;50.53;;;;;;;13.12;58.48;97126.94;10373063;28;20394;-55
2022/11/05 18:26:38;;;;;;;79.03;49.95;;;;;;;13.05;59.39;97131.41;10372477;28;20079;-55
2022/11/05 18:31:37;;;;;;;88.80;55.97;;;;;;;12.88;60.03;97143.91;10372646;28;20032;-56
2022/11/05 18:36:36;;;;;;;75.00;49.70;;;;;;;12.68;60.04;97142.56;10373030;28;20041;-56
2022/11/05 18:41:35;;;;;;;79.18;52.42;;;;;;;12.63;59.85;97154.81;10372642;28;20031;-56
2022/11/05 18:46:34;;;;;;;86.65;58.63;;;;;;;12.58;60.06;97154.03;10372262;28;20032;-56
2022/11/05 18:51:33;;;;;;;77.13;49.00;;;;;;;12.55;60.19;97150.63;10372165;28;20107;-56
2022/11/05 18:56:32;;;;;;;71.43;46.85;;;;;;;12.48;60.35;97155.06;10372119;28;20051;-56
2022/11/05 19:01:31;;;;;;;74.35;46.88;;;;;;;12.41;60.41;97161.28;10380476;28;20041;-56
2022/11/05 19:06:30;;;;;;;60.17;39.75;;;;;;;12.35;60.59;97162.25;10380037;28;20065;-56
2022/11/05 19:11:30;;;;;;;57.60;40.00;;;;;;;12.28;61.14;97161.50;10380042;28;20060;-56
2022/11/05 19:16:30;;;;;;;60.58;39.05;;;;;;;12.23;61.01;97158.09;10380352;28;20487;-56
2022/11/05 19:21:29;;;;;;;55.95;37.85;;;;;;;12.19;61.01;97164.22;10379751;28;20064;-56
2022/11/05 19:26:29;;;;;;;125.07;75.47;;;;;;;12.06;61.93;97162.72;10379395;28;20492;-56
2022/11/05 19:31:29;;;;;;;64.75;41.92;;;;;;;11.98;62.15;97162.84;10379788;28;20441;-56
2022/11/05 19:36:28;;;;;;;65.45;43.08;;;;;;;11.92;62.49;97164.69;10379241;28;20071;-56
2022/11/05 19:41:27;;;;;;;70.40;46.03;;;;;;;11.84;62.35;97163.06;10379532;28;20504;-56
2022/11/05 19:46:28;;;;;;;59.45;38.78;;;;;;;11.81;62.62;97173.50;10379126;28;20438;-56
2022/11/05 19:51:30;;;;;;;52.10;34.00;;;;;;;11.79;62.41;97175.28;10377868;28;20088;-56
2022/11/05 19:56:31;;;;;;;63.72;43.47;;;;;;;11.70;63.09;97170.22;10378543;28;20064;-56
2022/11/05 20:01:32;;;;;;;69.68;46.00;;;;;;;11.57;64.51;97173.84;10377684;28;20560;-56
2022/11/05 20:06:36;;;;;;;60.10;38.33;;;;;;;11.61;64.77;97183.34;10378387;28;20065;-56
2022/11/05 20:11:36;;;;;;;59.22;41.15;;;;;;;11.58;64.94;97186.00;10375613;28;20087;-56
2022/11/05 20:16:37;;;;;;;73.47;50.13;;;;;;;11.58;64.16;97206.78;10377977;28;20063;-56
2022/11/05 20:21:37;;;;;;;62.30;39.33;;;;;;;11.49;64.91;97189.56;10378173;28;20076;-56
2022/11/05 20:26:37;;;;;;;58.65;39.67;;;;;;;11.38;66.05;97200.09;10377077;28;20068;-56
2022/11/05 20:31:36;;;;;;;67.85;45.85;;;;;;;11.42;65.52;97201.78;10376273;28;20072;-56
2022/11/05 20:36:35;;;;;;;70.10;45.53;;;;;;;11.44;65.54;97215.59;10376833;28;20032;-57
2022/11/05 20:41:33;;;;;;;66.97;45.88;;;;;;;11.42;64.78;97219.09;10374569;28;20040;-57
2022/11/05 20:46:32;;;;;;;65.72;45.22;;;;;;;11.37;65.05;97208.78;10376889;28;20439;-56
2022/11/05 20:51:31;;;;;;;66.55;45.42;;;;;;;11.35;65.10;97207.94;10376175;28;20130;-56
2022/11/05 20:56:35;;;;;;;66.97;42.58;;;;;;;11.38;64.80;97210.47;10376637;28;20071;-57
2022/11/05 21:01:34;;;;;;;62.97;42.67;;;;;;;11.36;65.56;97211.38;10375931;28;20515;-57
2022/11/05 21:06:34;;;;;;;65.55;45.40;;;;;;;11.34;65.20;97226.13;10375625;28;20484;-57
2022/11/05 21:12:08;;;;;;;79.93;51.70;;;;;;;11.22;66.17;97225.41;10375456;28;20068;-56
2022/11/05 21:16:52;;;;;;;86.93;56.38;;;;;;;11.12;66.96;97235.94;10374989;28;20068;-57
2022/11/05 21:21:51;;;;;;;84.57;55.30;;;;;;;11.15;66.80;97228.09;10374356;28;20032;-56
2022/11/05 21:26:50;;;;;;;76.47;50.60;;;;;;;11.14;66.89;97237.63;10375292;28;20570;-57
2022/11/05 21:31:49;;;;;;;;;;;;;;;11.03;67.34;97219.59;10374547;28;20079;-56
2022/11/05 21:36:50;;;;;;;84.80;52.97;;;;;;;10.99;67.35;97219.63;10374711;28;19913;-56
2022/11/05 21:41:49;;;;;;;63.53;41.10;;;;;;;10.85;67.62;97219.75;10374546;28;20072;-56
2022/11/05 21:46:48;;;;;;;53.30;33.75;;;;;;;10.76;67.85;97217.25;10374239;28;20036;-56
2022/11/05 22:02:23;;;;;;;56.20;34.42;;;;;;;10.34;70.03;97237.53;10374141;28;20065;-56
2022/11/05 22:07:26;;;;;;;49.95;34.88;;;;;;;10.39;69.52;97231.44;10373258;28;20064;-57
2022/11/05 22:12:25;;;;;;;52.92;35.15;;;;;;;10.41;69.89;97245.25;10373056;28;20449;-57
2022/11/05 22:17:25;;;;;;;56.40;35.60;;;;;;;10.38;69.54;97229.72;10372822;28;20073;-56
2022/11/05 22:22:24;;;;;;;59.78;36.80;;;;;;;10.38;70.12;97234.06;10373006;28;20084;-56
2022/11/05 22:27:23;;;;;;;50.63;34.30;;;;;;;10.25;70.78;97232.44;10372920;28;20099;-56
2022/11/05 22:32:22;;;;;;;51.10;34.90;;;;;;;10.30;70.23;97231.50;10372361;28;20071;-56
2022/11/05 22:37:21;;;;;;;55.72;36.03;;;;;;;10.33;70.79;97230.59;10372451;28;20102;-56
2022/11/05 22:42:20;;;;;;;;;;;;;;;10.30;70.14;97231.50;10373298;28;20520;-56
2022/11/05 22:47:19;;;;;;;52.92;34.63;;;;;;;10.33;70.45;97228.03;10372432;28;20512;-57
2022/11/05 22:52:18;;;;;;;51.38;34.30;;;;;;;10.32;70.43;97240.13;10372144;28;20546;-57
2022/11/05 22:57:17;;;;;;;54.40;35.58;;;;;;;10.30;70.51;97228.91;10372493;28;20039;-56
2022/11/05 23:02:16;;;;;;;57.88;34.40;;;;;;;10.27;71.29;97241.06;10371992;28;20076;-57
2022/11/05 23:12:36;;;;;;;58.33;35.40;;;;;;;10.19;71.37;97230.72;10372686;28;20076;-57
2022/11/05 23:28:11;;;;;;;55.50;35.35;;;;;;;9.89;73.46;97242.19;10371792;28;20064;-57
2022/11/05 23:33:10;;;;;;;58.63;38.42;;;;;;;9.79;74.09;97236.19;10371374;28;20477;-57
2022/11/05 23:48:44;;;;;;;56.15;36.63;;;;;;;9.66;74.11;97235.41;10378716;28;20472;-56
2022/11/05 23:53:43;;;;;;;59.15;35.97;;;;;;;9.59;74.72;97225.97;10378540;28;20429;-57
2022/11/05 23:58:42;;;;;;;58.85;36.92;;;;;;;9.60;74.93;97232.00;10378277;28;20112;-57
